Time;durP1;ratioP1;P1;durP2;ratioP2;P2;SDS_P1;SDS_P2;PMS_P1;PMS_P2;Temp;Humidity;BMP_temperature;BMP_pressure;BME280_temperature;BME280_humidity;BME280_pressure;Samples;Min_cycle;Max_cycle;Signal;HPM_P1;HPM_P2
2022/09/29 00:01:56;;;;;;;12.35;7.50;;;6.20;99.90;;;;;;5032415;28;20032;-66
2022/09/29 00:04:22;;;;;;;12.07;7.97;;;6.10;99.90;;;;;;5038412;28;20041;-67
2022/09/29 00:06:47;;;;;;;14.40;8.05;;;6.10;99.90;;;;;;5035357;28;20095;-66
2022/09/29 00:09:13;;;;;;;13.35;7.90;;;6.10;99.90;;;;;;5041506;28;20111;-66
2022/09/29 00:11:39;;;;;;;13.73;7.43;;;6.10;99.90;;;;;;5030476;28;20638;-66
2022/09/29 00:14:05;;;;;;;12.07;6.55;;;6.10;99.90;;;;;;5062680;28;20025;-66
2022/09/29 00:16:30;;;;;;;11.23;6.72;;;6.20;99.90;;;;;;5040545;28;20041;-67
2022/09/29 00:18:56;;;;;;;12.52;7.20;;;6.10;99.90;;;;;;5046777;28;20036;-66
2022/09/29 00:21:22;;;;;;;11.00;6.85;;;6.00;99.90;;;;;;5047407;28;20025;-67
2022/09/29 00:23:49;;;;;;;12.07;6.68;;;6.10;99.90;;;;;;5072468;28;20048;-66
2022/09/29 00:26:18;;;;;;;13.52;7.65;;;6.10;99.90;;;;;;5033649;28;20119;-66
2022/09/29 00:28:52;;;;;;;12.32;7.10;;;6.10;99.90;;;;;;5028165;28;20064;-66
2022/09/29 00:31:19;;;;;;;12.07;6.97;;;6.20;99.90;;;;;;5035509;28;20032;-65
2022/09/29 00:33:44;;;;;;;11.60;6.43;;;6.20;99.90;;;;;;5035704;28;20072;-65
2022/09/29 00:36:15;;;;;;;10.68;6.70;;;6.20;99.90;;;;;;5033462;28;20076;-65
2022/09/29 00:38:42;;;;;;;13.85;7.45;;;6.20;99.90;;;;;;5033795;28;20060;-65
2022/09/29 00:41:16;;;;;;;12.65;7.10;;;6.20;99.90;;;;;;5033285;28;20052;-66
2022/09/29 00:43:56;;;;;;;11.60;6.80;;;6.30;99.90;;;;;;5031777;28;20450;-66
2022/09/29 00:46:31;;;;;;;12.93;7.70;;;6.30;99.90;;;;;;5027593;28;20080;-65
2022/09/29 00:49:01;;;;;;;12.48;6.55;;;6.20;99.90;;;;;;5028184;28;20395;-65
2022/09/29 00:51:31;;;;;;;13.30;6.72;;;6.10;99.90;;;;;;5032486;28;20030;-65
2022/09/29 00:53:58;;;;;;;11.27;6.78;;;6.10;99.90;;;;;;5035676;28;20395;-66
2022/09/29 00:56:25;;;;;;;11.10;6.22;;;6.00;99.90;;;;;;5033113;28;20038;-65
2022/09/29 00:58:58;;;;;;;13.02;7.45;;;6.10;99.90;;;;;;5030586;28;20033;-66
2022/09/29 01:01:27;;;;;;;13.10;6.85;;;6.10;99.90;;;;;;5033693;28;20029;-65
2022/09/29 01:04:02;;;;;;;11.60;6.90;;;6.10;99.90;;;;;;5042972;28;20124;-66
2022/09/29 01:06:44;;;;;;;12.52;6.72;;;6.20;99.90;;;;;;5036146;28;20053;-67
2022/09/29 01:09:16;;;;;;;14.60;7.22;;;6.10;99.90;;;;;;5041274;28;20029;-66
2022/09/29 01:11:42;;;;;;;11.43;6.68;;;6.10;99.90;;;;;;5040203;28;20036;-66
2022/09/29 01:14:09;;;;;;;10.13;5.85;;;6.10;99.90;;;;;;5045742;28;20037;-67
2022/09/29 01:16:36;;;;;;;11.88;6.00;;;6.10;99.90;;;;;;5047190;28;20487;-66
2022/09/29 01:19:06;;;;;;;10.55;6.47;;;6.10;99.90;;;;;;5031165;28;20131;-66
2022/09/29 01:21:57;;;;;;;9.77;6.18;;;6.10;99.90;;;;;;5035333;28;20029;-66
2022/09/29 01:24:38;;;;;;;10.25;5.90;;;6.00;99.90;;;;;;5046251;28;20028;-66
2022/09/29 01:27:10;;;;;;;11.43;6.93;;;6.00;99.90;;;;;;5036945;28;20044;-65
2022/09/29 01:30:16;;;;;;;11.20;7.00;;;6.00;99.90;;;;;;5054861;28;20021;-66
2022/09/29 01:33:16;;;;;;;10.43;6.80;;;6.00;99.90;;;;;;5042165;28;20049;-66
2022/09/29 01:36:00;;;;;;;;;;;5.90;99.90;;;;;;4965468;28;20045;-67
2022/09/29 01:38:34;;;;;;;14.13;6.43;;;5.80;99.90;;;;;;4968546;28;19910;-66
2022/09/29 01:41:10;;;;;;;11.85;6.78;;;5.70;99.90;;;;;;4964420;28;20035;-65
2022/09/29 01:43:41;;;;;;;12.27;7.10;;;5.60;99.90;;;;;;4956110;28;20071;-66
2022/09/29 01:46:36;;;;;;;12.88;6.70;;;5.60;99.90;;;;;;4957333;28;20078;-66
2022/09/29 01:49:03;;;;;;;11.45;6.13;;;5.60;99.90;;;;;;4950735;28;20074;-65
2022/09/29 01:51:40;;;;;;;12.77;6.43;;;5.60;99.90;;;;;;4963423;28;20039;-66
2022/09/29 01:54:13;;;;;;;10.07;6.47;;;5.70;99.90;;;;;;4966505;28;20042;-66
2022/09/29 01:56:45;;;;;;;11.15;6.78;;;5.80;99.90;;;;;;4960135;28;20086;-65
2022/09/29 01:59:50;;;;;;;13.38;6.30;;;5.80;99.90;;;;;;4941017;28;20425;-66
2022/09/29 02:02:24;;;;;;;11.75;6.00;;;5.80;99.90;;;;;;4967021;28;20113;-66
2022/09/29 02:04:53;;;;;;;12.68;6.18;;;5.80;99.90;;;;;;4968125;28;20050;-66
2022/09/29 02:07:35;;;;;;;10.90;6.43;;;5.70;99.90;;;;;;4968029;28;20045;-66
2022/09/29 02:10:06;;;;;;;10.07;6.38;;;5.60;99.90;;;;;;4998235;28;20029;-66
2022/09/29 02:12:33;;;;;;;11.00;6.30;;;5.50;99.90;;;;;;5035115;28;20534;-66
2022/09/29 02:15:02;;;;;;;9.85;6.00;;;5.50;99.90;;;;;;5037568;28;20384;-66
2022/09/29 02:17:34;;;;;;;11.93;6.72;;;5.60;99.90;;;;;;5041311;28;20487;-66
2022/09/29 02:20:00;;;;;;;11.52;6.63;;;5.60;99.90;;;;;;5039120;28;20040;-66
2022/09/29 02:22:27;;;;;;;12.02;6.22;;;5.70;99.90;;;;;;5040569;28;20036;-66
2022/09/29 02:24:57;;;;;;;10.23;6.43;;;5.70;99.90;;;;;;5029955;28;20041;-66
2022/09/29 02:27:26;;;;;;;10.10;6.07;;;5.80;99.90;;;;;;5035440;28;20079;-66
2022/09/29 02:29:52;;;;;;;9.20;5.75;;;5.80;99.90;;;;;;5036202;28;20056;-67
2022/09/29 02:32:18;;;;;;;10.43;6.45;;;5.70;99.90;;;;;;5054487;28;20033;-66
2022/09/29 02:34:47;;;;;;;10.88;5.95;;;5.70;99.90;;;;;;5030791;28;20056;-67
2022/09/29 02:37:39;;;;;;;8.90;6.10;;;5.70;99.90;;;;;;5034193;28;20772;-66
2022/09/29 02:40:41;;;;;;;11.27;6.50;;;5.60;99.90;;;;;;5031964;28;20072;-65
2022/09/29 02:43:31;;;;;;;10.48;6.30;;;5.50;99.90;;;;;;5043209;28;20060;-66
2022/09/29 02:46:25;;;;;;;9.40;5.53;;;5.50;99.90;;;;;;5040130;28;20033;-65
2022/09/29 02:49:09;;;;;;;11.13;6.97;;;5.30;99.90;;;;;;5030361;28;20033;-66
2022/09/29 02:51:40;;;;;;;14.93;8.18;;;5.20;99.90;;;;;;5040302;28;20033;-65
2022/09/29 02:54:27;;;;;;;11.32;7.05;;;5.00;99.90;;;;;;5054785;28;20033;-64
2022/09/29 02:56:59;;;;;;;12.57;7.22;;;4.90;99.90;;;;;;5037309;28;20079;-65
2022/09/29 02:59:44;;;;;;;12.90;6.72;;;4.90;99.90;;;;;;5033779;28;20391;-65
2022/09/29 03:02:09;;;;;;;10.20;6.57;;;4.90;99.90;;;;;;5045709;28;20029;-65
2022/09/29 03:04:35;;;;;;;12.85;7.43;;;4.90;99.90;;;;;;5047856;28;20037;-65
2022/09/29 03:07:01;;;;;;;12.75;7.25;;;5.00;99.90;;;;;;5031650;28;20040;-65
2022/09/29 03:09:27;;;;;;;12.30;7.65;;;5.10;99.90;;;;;;5043918;28;20033;-66
2022/09/29 03:11:52;;;;;;;11.45;7.70;;;5.20;99.90;;;;;;5042076;28;20120;-65
2022/09/29 03:14:18;;;;;;;13.27;7.55;;;5.20;99.90;;;;;;5040367;28;20510;-65
2022/09/29 03:16:43;;;;;;;14.05;8.45;;;5.20;99.90;;;;;;5045107;28;20033;-65
2022/09/29 03:19:10;;;;;;;14.00;7.35;;;5.10;99.90;;;;;;5032482;28;20033;-65
2022/09/29 03:21:35;;;;;;;13.48;7.10;;;5.00;99.90;;;;;;5068722;28;20040;-65
2022/09/29 03:24:01;;;;;;;15.45;8.23;;;4.90;99.90;;;;;;5035331;28;20030;-65
2022/09/29 03:26:29;;;;;;;12.27;7.70;;;4.90;99.90;;;;;;5042413;28;20057;-64
2022/09/29 03:28:54;;;;;;;12.80;8.10;;;4.90;99.90;;;;;;5033119;28;20040;-65
2022/09/29 03:31:20;;;;;;;12.98;7.40;;;4.90;99.90;;;;;;5046423;28;20026;-65
2022/09/29 03:33:46;;;;;;;13.00;7.50;;;4.90;99.90;;;;;;5042994;28;20033;-65
2022/09/29 03:36:12;;;;;;;11.88;7.47;;;5.00;99.90;;;;;;5037178;28;20032;-65
2022/09/29 03:38:38;;;;;;;11.23;7.55;;;5.00;99.90;;;;;;5036203;28;20410;-66
2022/09/29 03:41:05;;;;;;;13.95;7.35;;;5.10;99.90;;;;;;5034376;28;20056;-66
2022/09/29 03:43:30;;;;;;;12.00;7.28;;;5.10;99.90;;;;;;5034850;28;20106;-66
2022/09/29 03:45:56;;;;;;;15.23;7.93;;;5.20;99.90;;;;;;5058596;28;20040;-66
2022/09/29 03:48:23;;;;;;;12.30;7.15;;;5.20;99.90;;;;;;5049554;28;20037;-65
2022/09/29 03:50:50;;;;;;;11.85;7.07;;;5.20;99.90;;;;;;5050917;28;20033;-65
2022/09/29 03:53:17;;;;;;;10.25;6.53;;;5.10;99.90;;;;;;5033900;28;20505;-65
2022/09/29 03:55:47;;;;;;;11.07;6.50;;;5.00;99.90;;;;;;5027647;28;20056;-65
2022/09/29 03:58:14;;;;;;;14.68;7.80;;;5.10;99.90;;;;;;5032513;28;20031;-66
2022/09/29 04:00:39;;;;;;;11.25;6.50;;;5.20;99.90;;;;;;5033275;28;20051;-65
2022/09/29 04:03:05;;;;;;;14.30;7.57;;;5.30;99.90;;;;;;5030424;28;20037;-65
2022/09/29 04:05:32;;;;;;;10.05;6.78;;;5.30;99.90;;;;;;5028629;28;20207;-65
2022/09/29 04:07:57;;;;;;;10.93;6.72;;;5.30;99.90;;;;;;5029872;28;20033;-67
2022/09/29 04:10:23;;;;;;;11.20;7.07;;;5.30;99.90;;;;;;5041897;28;20470;-65
2022/09/29 04:12:48;;;;;;;14.50;7.50;;;5.30;99.90;;;;;;5043247;28;20135;-66
2022/09/29 04:15:14;;;;;;;12.40;7.45;;;5.30;99.90;;;;;;5031166;28;20034;-65
2022/09/29 04:17:40;;;;;;;11.93;7.57;;;5.30;99.90;;;;;;5028507;28;20049;-66
2022/09/29 04:20:06;;;;;;;12.85;7.28;;;5.20;99.90;;;;;;5027946;28;20033;-66
2022/09/29 04:22:32;;;;;;;10.80;7.50;;;5.20;99.90;;;;;;5040574;28;20033;-65
2022/09/29 04:24:58;;;;;;;12.90;7.88;;;5.20;99.90;;;;;;5047762;28;20493;-66
2022/09/29 04:27:24;;;;;;;12.95;7.70;;;5.10;99.90;;;;;;5049956;28;20036;-66
2022/09/29 04:29:50;;;;;;;11.52;7.28;;;5.10;99.90;;;;;;5050720;28;20219;-65
2022/09/29 04:32:15;;;;;;;15.15;8.32;;;5.10;99.90;;;;;;5049379;28;20490;-66
2022/09/29 04:34:41;;;;;;;16.35;8.07;;;5.00;99.90;;;;;;5031704;28;20105;-66
2022/09/29 04:37:11;;;;;;;15.05;8.25;;;4.80;99.90;;;;;;5031539;28;20046;-65
2022/09/29 04:39:36;;;;;;;12.47;8.10;;;4.70;99.90;;;;;;5032157;28;20108;-66
2022/09/29 04:42:02;;;;;;;14.75;8.75;;;4.60;99.90;;;;;;5032085;28;20113;-66
2022/09/29 04:44:28;;;;;;;13.60;8.63;;;4.50;99.90;;;;;;5031655;28;20088;-65
2022/09/29 04:46:53;;;;;;;15.13;9.18;;;4.50;99.90;;;;;;5031990;28;20149;-67
2022/09/29 04:49:19;;;;;;;15.43;9.90;;;4.50;99.90;;;;;;5052821;28;20068;-65
2022/09/29 04:51:45;;;;;;;13.75;9.70;;;4.50;99.90;;;;;;5043441;28;20033;-65
2022/09/29 04:54:11;;;;;;;18.23;10.65;;;4.50;99.90;;;;;;5049112;28;20036;-66
2022/09/29 04:56:36;;;;;;;15.45;9.18;;;4.50;99.90;;;;;;5038236;28;20038;-65
2022/09/29 04:59:02;;;;;;;14.02;9.25;;;4.40;99.90;;;;;;5030425;28;20037;-66
2022/09/29 05:01:28;;;;;;;15.18;9.93;;;4.40;99.90;;;;;;5031850;28;20040;-66
2022/09/29 05:03:54;;;;;;;14.60;9.80;;;4.30;99.90;;;;;;5035605;28;20038;-67
2022/09/29 05:06:20;;;;;;;14.32;9.52;;;4.30;99.90;;;;;;5044007;28;20131;-65
2022/09/29 05:08:46;;;;;;;15.60;9.13;;;4.20;99.90;;;;;;5063478;28;20483;-66
2022/09/29 05:11:12;;;;;;;14.43;9.63;;;4.10;99.90;;;;;;5032851;28;20105;-66
2022/09/29 05:13:37;;;;;;;15.50;10.15;;;4.20;99.90;;;;;;5067270;28;20413;-65
2022/09/29 05:16:03;;;;;;;15.50;10.27;;;4.20;99.90;;;;;;5047847;28;20040;-66
2022/09/29 05:18:30;;;;;;;19.33;9.75;;;4.20;99.90;;;;;;5065821;28;20032;-66
2022/09/29 05:21:00;;;;;;;15.43;9.38;;;4.30;99.90;;;;;;5047020;28;20040;-66
2022/09/29 05:23:27;;;;;;;16.08;9.60;;;4.30;99.90;;;;;;5036284;28;20029;-65
2022/09/29 05:25:53;;;;;;;16.65;9.18;;;4.30;99.90;;;;;;5051296;28;20053;-65
2022/09/29 05:28:18;;;;;;;14.63;8.38;;;4.30;99.90;;;;;;5030971;28;20029;-65
2022/09/29 05:30:44;;;;;;;15.70;8.32;;;4.30;99.90;;;;;;5030851;28;20056;-64
2022/09/29 05:33:09;;;;;;;14.05;8.88;;;4.40;99.90;;;;;;5037491;28;20083;-65
2022/09/29 05:35:35;;;;;;;13.32;8.90;;;4.40;99.90;;;;;;5068548;28;20128;-65
2022/09/29 05:38:01;;;;;;;14.93;9.45;;;4.30;99.90;;;;;;5037119;28;20033;-65
2022/09/29 05:40:26;;;;;;;12.98;8.20;;;4.20;99.90;;;;;;5046221;28;20035;-65
2022/09/29 05:42:52;;;;;;;13.07;8.73;;;4.10;99.90;;;;;;5033602;28;20033;-65
2022/09/29 05:45:18;;;;;;;13.02;8.60;;;4.20;99.90;;;;;;5035723;28;20041;-65
2022/09/29 05:47:44;;;;;;;14.18;8.48;;;4.20;99.90;;;;;;5037033;28;20044;-65
2022/09/29 05:50:11;;;;;;;15.68;9.18;;;4.30;99.90;;;;;;5039922;28;20099;-65
2022/09/29 05:52:38;;;;;;;13.52;9.15;;;4.50;99.90;;;;;;5042035;28;20037;-65
2022/09/29 05:55:04;;;;;;;14.93;9.90;;;4.50;99.90;;;;;;5033849;28;20035;-66
2022/09/29 05:57:30;;;;;;;14.27;9.55;;;4.60;99.90;;;;;;5038248;28;20116;-66
2022/09/29 05:59:56;;;;;;;12.85;8.63;;;4.60;99.90;;;;;;5030435;28;20108;-65
2022/09/29 06:02:22;;;;;;;12.52;8.05;;;4.60;99.90;;;;;;5038330;28;20133;-67
2022/09/29 06:04:48;;;;;;;13.07;8.73;;;4.70;99.90;;;;;;5032983;28;20044;-65
2022/09/29 06:07:14;;;;;;;11.80;8.50;;;4.80;99.90;;;;;;5046343;28;20040;-66
2022/09/29 06:09:39;;;;;;;12.18;8.13;;;4.80;99.90;;;;;;5044246;28;20033;-65
2022/09/29 06:12:05;;;;;;;14.90;9.07;;;4.90;99.90;;;;;;5038670;28;20051;-65
2022/09/29 06:14:31;;;;;;;12.27;8.43;;;4.90;99.90;;;;;;5040006;28;20035;-66
2022/09/29 06:16:56;;;;;;;12.00;8.57;;;5.00;99.90;;;;;;5044034;28;20040;-66
2022/09/29 06:19:22;;;;;;;13.43;7.95;;;5.00;99.90;;;;;;5041057;28;20154;-66
2022/09/29 06:21:47;;;;;;;13.98;8.48;;;5.00;99.90;;;;;;5044416;28;20080;-65
2022/09/29 06:24:13;;;;;;;13.52;8.40;;;5.00;99.90;;;;;;5039924;28;20035;-67
2022/09/29 06:26:39;;;;;;;14.30;8.27;;;5.00;99.90;;;;;;5044861;28;20478;-65
2022/09/29 06:29:04;;;;;;;15.73;9.05;;;5.00;99.90;;;;;;5038708;28;20410;-66
2022/09/29 06:31:31;;;;;;;12.02;7.90;;;5.00;99.90;;;;;;5042329;28;20029;-66
2022/09/29 06:34:01;;;;;;;12.73;8.00;;;5.00;99.90;;;;;;5031889;28;20029;-64
2022/09/29 06:39:22;;;;;;;11.52;7.88;;;5.00;99.90;;;;;;5037830;28;20394;-65
2022/09/29 06:41:52;;;;;;;13.02;7.63;;;5.00;99.90;;;;;;5043936;28;20041;-65
2022/09/29 06:44:23;;;;;;;10.65;6.50;;;5.00;99.90;;;;;;5037916;28;20040;-65
2022/09/29 06:46:50;;;;;;;10.25;7.13;;;5.00;99.90;;;;;;5050634;28;20052;-65
2022/09/29 06:49:16;;;;;;;10.25;6.88;;;5.00;99.90;;;;;;5040792;28;20061;-65
2022/09/29 06:51:42;;;;;;;11.27;7.25;;;5.10;99.90;;;;;;5048227;28;20067;-65
2022/09/29 06:54:10;;;;;;;11.05;7.60;;;5.10;99.90;;;;;;5048792;28;20119;-66
2022/09/29 06:56:35;;;;;;;10.27;6.88;;;5.20;99.90;;;;;;5039139;28;20064;-66
2022/09/29 06:59:01;;;;;;;12.52;7.65;;;5.20;99.90;;;;;;5031755;28;20029;-66
2022/09/29 07:01:27;;;;;;;11.35;7.03;;;5.40;99.90;;;;;;5033318;28;21171;-67
2022/09/29 07:03:52;;;;;;;13.73;6.85;;;5.50;99.90;;;;;;5064317;28;20033;-66
2022/09/29 07:06:18;;;;;;;10.60;6.60;;;5.60;99.90;;;;;;5041574;28;20126;-65
2022/09/29 07:08:43;;;;;;;10.43;6.97;;;5.70;99.90;;;;;;5038449;28;20039;-66
2022/09/29 07:11:10;;;;;;;11.38;6.20;;;5.80;99.90;;;;;;5035620;28;20687;-66
2022/09/29 07:13:36;;;;;;;11.88;7.47;;;5.90;99.90;;;;;;5031504;28;20032;-65
2022/09/29 07:16:10;;;;;;;12.90;7.20;;;6.00;99.90;;;;;;5037185;28;20175;-65
2022/09/29 07:18:38;;;;;;;10.23;6.38;;;6.10;99.90;;;;;;5038132;28;20547;-66
2022/09/29 07:21:05;;;;;;;9.60;6.70;;;6.30;99.90;;;;;;5038740;28;20306;-65
2022/09/29 07:23:32;;;;;;;11.43;6.50;;;6.40;99.90;;;;;;5061627;28;20029;-66
2022/09/29 07:25:58;;;;;;;10.88;6.63;;;6.60;99.90;;;;;;5035782;28;20124;-66
2022/09/29 07:28:24;;;;;;;10.30;6.20;;;6.70;99.90;;;;;;5047434;28;20111;-67
2022/09/29 07:31:08;;;;;;;11.18;6.78;;;6.90;99.90;;;;;;5047330;28;20044;-68
2022/09/29 07:33:33;;;;;;;7.88;5.78;;;7.00;99.90;;;;;;5046074;28;20037;-65
2022/09/29 07:35:59;;;;;;;10.38;6.10;;;7.00;99.90;;;;;;5047967;28;20025;-66
2022/09/29 07:38:29;;;;;;;11.20;7.00;;;7.00;99.90;;;;;;5037494;28;20078;-65
2022/09/29 07:41:00;;;;;;;8.30;6.18;;;7.10;99.90;;;;;;5029187;28;20040;-66
2022/09/29 07:43:26;;;;;;;9.30;6.13;;;7.20;99.90;;;;;;5031958;28;20112;-65
2022/09/29 07:45:52;;;;;;;10.68;6.57;;;7.40;99.90;;;;;;5032074;28;20041;-65
2022/09/29 07:48:18;;;;;;;9.23;6.05;;;7.50;99.90;;;;;;5041218;28;20795;-66
2022/09/29 07:50:44;;;;;;;8.85;5.68;;;7.70;99.90;;;;;;5047417;28;20037;-66
2022/09/29 07:53:11;;;;;;;7.38;5.25;;;7.80;99.90;;;;;;5041432;28;20132;-66
2022/09/29 07:55:37;;;;;;;8.48;5.32;;;7.90;99.90;;;;;;5047499;28;20040;-66
2022/09/29 07:58:03;;;;;;;8.88;5.72;;;8.10;99.90;;;;;;5045850;28;20056;-66
2022/09/29 08:00:30;;;;;;;11.15;5.50;;;8.30;99.90;;;;;;5031715;28;20044;-67
2022/09/29 08:03:03;;;;;;;9.40;5.55;;;8.30;99.90;;;;;;5026425;28;20037;-66
2022/09/29 08:05:33;;;;;;;7.93;5.32;;;8.50;99.90;;;;;;5032106;28;20053;-67
2022/09/29 08:08:00;;;;;;;9.60;5.83;;;8.60;99.90;;;;;;5029079;28;20072;-67
2022/09/29 08:10:26;;;;;;;8.00;4.93;;;8.80;99.90;;;;;;5028359;28;20285;-67
2022/09/29 08:12:53;;;;;;;8.98;5.15;;;8.90;99.90;;;;;;5037010;28;20401;-67
2022/09/29 08:15:19;;;;;;;7.90;4.93;;;9.10;99.90;;;;;;5030090;28;20048;-67
2022/09/29 08:17:45;;;;;;;6.95;4.28;;;9.30;99.90;;;;;;5038127;28;20060;-67
2022/09/29 08:20:11;;;;;;;7.00;4.00;;;9.40;99.90;;;;;;5035486;28;20629;-66
2022/09/29 08:22:36;;;;;;;7.72;3.78;;;9.60;99.90;;;;;;5036767;28;20033;-67
2022/09/29 08:25:02;;;;;;;6.40;3.05;;;9.70;99.90;;;;;;5039626;28;20033;-67
2022/09/29 08:27:28;;;;;;;5.47;3.10;;;9.80;99.90;;;;;;5028399;28;20029;-67
2022/09/29 08:29:55;;;;;;;7.13;3.60;;;9.90;99.90;;;;;;5028826;28;20038;-67
2022/09/29 08:32:21;;;;;;;7.18;3.70;;;10.10;99.90;;;;;;5037823;28;20075;-65
2022/09/29 08:34:47;;;;;;;6.65;3.10;;;10.30;99.90;;;;;;5032454;28;20069;-66
2022/09/29 08:37:12;;;;;;;6.78;3.35;;;10.40;99.90;;;;;;5036516;28;20040;-65
2022/09/29 08:39:38;;;;;;;6.68;3.10;;;10.50;99.90;;;;;;5031147;28;20033;-65
2022/09/29 08:42:14;;;;;;;5.25;3.05;;;10.60;99.90;;;;;;5040488;28;20029;-66
2022/09/29 08:44:47;;;;;;;6.85;3.20;;;10.70;99.90;;;;;;5027512;28;20053;-65
2022/09/29 08:47:20;;;;;;;6.32;3.08;;;10.80;99.90;;;;;;5034599;28;20049;-65
2022/09/29 08:50:10;;;;;;;5.07;2.67;;;10.90;99.90;;;;;;5028385;28;20041;-65
2022/09/29 08:52:42;;;;;;;6.38;2.85;;;11.00;99.90;;;;;;5027650;28;20041;-66
2022/09/29 08:55:17;;;;;;;5.00;2.67;;;11.10;99.90;;;;;;5028107;28;20034;-65
2022/09/29 08:57:46;;;;;;;6.15;2.90;;;11.20;99.90;;;;;;5040273;28;20030;-65
2022/09/29 09:00:14;;;;;;;5.75;2.95;;;11.40;99.90;;;;;;5027398;28;20033;-66
2022/09/29 09:02:58;;;;;;;4.80;2.58;;;11.40;99.90;;;;;;5030130;28;20395;-66
2022/09/29 09:05:40;;;;;;;5.85;2.60;;;11.50;99.90;;;;;;5026671;28;20475;-66
2022/09/29 09:08:12;;;;;;;5.30;2.70;;;11.70;99.90;;;;;;5027559;28;20045;-66
2022/09/29 09:10:37;;;;;;;8.80;3.05;;;11.80;99.90;;;;;;5028409;28;20048;-66
2022/09/29 09:13:18;;;;;;;5.38;2.80;;;11.90;99.90;;;;;;5039133;28;20434;-68
2022/09/29 09:16:22;;;;;;;5.55;2.85;;;12.00;99.90;;;;;;5045638;28;20148;-66
2022/09/29 09:19:32;;;;;;;4.53;2.50;;;12.10;99.90;;;;;;5034781;28;20078;-66
2022/09/29 09:22:16;;;;;;;6.25;2.97;;;12.20;99.90;;;;;;5023690;28;20604;-67
2022/09/29 09:24:54;;;;;;;5.85;2.97;;;12.30;99.90;;;;;;5009948;28;20037;-66
2022/09/29 09:27:27;;;;;;;5.88;2.50;;;12.40;99.90;;;;;;5015209;28;20096;-66
2022/09/29 09:30:05;;;;;;;5.18;2.70;;;12.60;99.90;;;;;;5012249;28;20034;-67
2022/09/29 09:32:36;;;;;;;5.07;2.85;;;12.70;99.90;;;;;;5015655;28;20057;-67
2022/09/29 09:35:23;;;;;;;5.03;2.15;;;12.80;99.90;;;;;;5009874;28;20068;-66
2022/09/29 09:37:50;;;;;;;6.22;2.40;;;12.90;99.90;;;;;;5009409;28;20050;-66
2022/09/29 09:40:31;;;;;;;5.55;3.05;;;13.00;99.90;;;;;;5003495;28;20033;-66
2022/09/29 09:43:04;;;;;;;5.32;2.33;;;13.10;99.90;;;;;;5011286;28;20114;-68
2022/09/29 09:45:36;;;;;;;5.40;2.28;;;13.40;99.90;;;;;;5010815;28;20389;-66
2022/09/29 09:48:15;;;;;;;4.25;2.42;;;13.80;99.90;;;;;;5002528;28;20208;-68
2022/09/29 09:50:42;;;;;;;5.63;2.80;;;13.90;99.90;;;;;;5015701;28;20046;-66
2022/09/29 09:53:25;;;;;;;3.40;2.10;;;14.00;99.90;;;;;;5015385;28;20490;-67
2022/09/29 09:56:21;;;;;;;4.03;1.98;;;14.20;99.90;;;;;;5010270;28;20056;-66
2022/09/29 09:59:27;;;;;;;3.90;1.90;;;14.30;99.90;;;;;;5019989;28;20037;-67
2022/09/29 10:01:53;;;;;;;4.55;1.85;;;14.40;99.90;;;;;;5030135;28;20037;-66
2022/09/29 10:04:20;;;;;;;3.30;1.27;;;14.60;99.90;;;;;;5042455;28;20044;-66
2022/09/29 10:06:45;;;;;;;7.03;1.70;;;14.80;99.90;;;;;;5030121;28;20171;-66
2022/09/29 10:09:14;;;;;;;4.07;1.48;;;14.80;99.90;;;;;;5041019;28;20510;-67
2022/09/29 10:11:42;;;;;;;3.58;1.52;;;14.90;99.90;;;;;;5037069;28;20040;-67
2022/09/29 10:14:10;;;;;;;1.85;1.00;;;15.90;98.20;;;;;;5045546;28;20041;-67
2022/09/29 10:16:44;;;;;;;3.72;1.17;;;16.20;96.30;;;;;;5033542;28;20049;-66
2022/09/29 10:19:09;;;;;;;3.22;1.20;;;15.80;96.00;;;;;;5042479;28;20045;-66
2022/09/29 10:21:43;;;;;;;3.95;1.13;;;15.50;97.10;;;;;;5040950;28;20118;-68
2022/09/29 10:24:22;;;;;;;3.65;1.52;;;15.40;97.70;;;;;;5026479;28;20066;-67
2022/09/29 10:26:51;;;;;;;3.78;1.40;;;15.30;97.90;;;;;;5032818;28;20041;-67
2022/09/29 10:29:35;;;;;;;;;;;15.40;96.90;;;;;;5038790;28;20234;-68
2022/09/29 10:32:05;;;;;;;2.72;1.13;;;15.40;96.70;;;;;;5040919;28;19962;-67
2022/09/29 10:34:31;;;;;;;;;;;15.40;96.20;;;;;;5040687;28;20048;-67
2022/09/29 10:36:59;;;;;;;3.75;1.00;;;15.40;96.00;;;;;;5042792;28;19913;-68
2022/09/29 10:39:47;;;;;;;3.22;1.10;;;15.40;96.50;;;;;;5036019;28;20051;-68
2022/09/29 10:42:34;;;;;;;2.67;1.05;;;15.40;96.10;;;;;;5038399;28;20033;-67
2022/09/29 10:45:10;;;;;;;3.88;1.33;;;15.40;96.10;;;;;;5033991;28;20033;-68
2022/09/29 10:47:37;;;;;;;4.55;1.50;;;15.50;96.10;;;;;;5032060;28;20041;-66
2022/09/29 10:50:14;;;;;;;4.03;1.30;;;15.50;95.80;;;;;;5033220;28;20033;-67
2022/09/29 10:52:49;;;;;;;2.97;1.35;;;15.70;95.50;;;;;;5036191;28;20052;-66
2022/09/29 10:55:46;;;;;;;3.85;1.30;;;15.70;94.70;;;;;;5031297;28;20033;-66
2022/09/29 10:58:41;;;;;;;3.85;1.15;;;15.90;94.60;;;;;;5037449;28;20077;-67
2022/09/29 11:01:09;;;;;;;3.03;0.93;;;16.20;92.70;;;;;;5027729;28;20076;-66
2022/09/29 11:03:37;;;;;;;2.88;1.20;;;16.20;92.60;;;;;;5034058;28;20024;-67
2022/09/29 11:06:11;;;;;;;4.45;1.42;;;15.90;92.90;;;;;;5029106;28;20050;-67
2022/09/29 11:09:06;;;;;;;2.65;1.20;;;15.60;92.20;;;;;;5031309;28;20488;-67
2022/09/29 11:11:36;;;;;;;3.00;1.00;;;15.20;93.70;;;;;;5033213;28;20025;-66
2022/09/29 11:14:01;;;;;;;3.65;1.05;;;15.00;95.10;;;;;;5032766;28;20041;-67
2022/09/29 11:16:35;;;;;;;2.00;1.00;;;14.80;95.60;;;;;;5029111;28;20667;-68
2022/09/29 11:19:10;;;;;;;1.92;0.77;;;14.70;95.30;;;;;;5029146;28;20106;-66
2022/09/29 11:21:58;;;;;;;2.17;0.80;;;14.60;94.60;;;;;;5038003;28;20055;-66
2022/09/29 11:24:32;;;;;;;1.45;0.73;;;14.50;95.00;;;;;;5035444;28;20044;-66
2022/09/29 11:27:09;;;;;;;2.25;0.80;;;14.40;95.20;;;;;;5032045;28;20091;-66
2022/09/29 11:29:59;;;;;;;2.38;0.80;;;14.40;93.80;;;;;;5037234;28;20484;-67
2022/09/29 11:32:25;;;;;;;2.08;0.73;;;14.50;92.30;;;;;;5036450;28;20035;-66
2022/09/29 11:35:09;;;;;;;3.75;0.80;;;15.10;93.30;;;;;;5029776;28;20037;-66
2022/09/29 11:37:47;;;;;;;1.83;0.70;;;16.10;91.10;;;;;;5028300;28;20055;-66
2022/09/29 11:40:55;;;;;;;1.85;0.63;;;17.00;83.40;;;;;;5038077;28;20112;-67
2022/09/29 11:43:46;;;;;;;1.92;0.55;;;17.20;80.20;;;;;;4996281;28;20128;-67
2022/09/29 11:46:45;;;;;;;2.90;0.95;;;16.90;77.70;;;;;;5005372;28;20041;-66
2022/09/29 11:49:29;;;;;;;1.88;0.55;;;16.60;79.90;;;;;;5023637;28;20095;-67
2022/09/29 11:52:16;;;;;;;1.98;0.70;;;16.20;80.50;;;;;;5020747;28;20087;-66
2022/09/29 11:55:04;;;;;;;3.42;0.93;;;15.70;81.80;;;;;;5018348;28;20049;-66
2022/09/29 11:57:56;;;;;;;1.80;0.80;;;15.30;82.70;;;;;;5008136;28;20695;-66
2022/09/29 12:00:48;;;;;;;2.33;0.80;;;14.90;84.70;;;;;;5023673;28;20059;-66
2022/09/29 12:03:36;;;;;;;1.02;0.60;;;14.70;88.90;;;;;;5022208;28;20157;-67
2022/09/29 12:06:14;;;;;;;2.83;0.63;;;14.90;90.40;;;;;;5023345;28;20077;-66
2022/09/29 12:08:45;;;;;;;1.88;0.70;;;15.30;89.40;;;;;;5022966;28;20046;-67
2022/09/29 12:11:57;;;;;;;3.05;0.70;;;15.90;85.30;;;;;;5021031;28;20044;-66
2022/09/29 12:14:56;;;;;;;4.15;0.63;;;16.40;83.00;;;;;;4978212;28;20038;-67
2022/09/29 12:17:26;;;;;;;1.08;0.50;;;16.70;74.60;;;;;;4993364;28;20041;-67
2022/09/29 12:19:57;;;;;;;;;;;16.40;74.20;;;;;;4972224;28;20410;-67
2022/09/29 12:22:22;;;;;;;1.30;0.47;;;16.00;75.20;;;;;;4964077;28;19936;-66
2022/09/29 12:24:56;;;;;;;1.63;0.70;;;15.70;77.70;;;;;;4979403;28;20416;-67
2022/09/29 12:27:27;;;;;;;2.50;0.88;;;15.30;78.10;;;;;;4957136;28;20484;-66
2022/09/29 12:29:57;;;;;;;2.45;0.80;;;15.10;81.20;;;;;;4975974;28;20035;-67
2022/09/29 12:32:32;;;;;;;2.17;0.75;;;14.90;82.30;;;;;;4953219;28;20050;-66
2022/09/29 12:35:08;;;;;;;5.88;1.08;;;14.80;84.00;;;;;;4964575;28;20034;-67
2022/09/29 12:37:58;;;;;;;1.90;0.80;;;14.90;85.70;;;;;;4984992;28;20084;-66
2022/09/29 12:40:58;;;;;;;2.55;0.80;;;15.10;80.80;;;;;;4985221;28;20109;-66
2022/09/29 12:44:11;;;;;;;4.10;1.58;;;15.30;79.90;;;;;;4972735;28;20035;-66
2022/09/29 12:46:46;;;;;;;5.55;2.28;;;15.50;83.90;;;;;;4985238;28;20046;-66
2022/09/29 12:49:24;;;;;;;5.55;2.08;;;15.60;78.90;;;;;;4972045;28;20615;-66
2022/09/29 12:51:51;;;;;;;4.20;1.60;;;15.60;77.90;;;;;;5010225;28;20132;-65
2022/09/29 12:54:35;;;;;;;3.72;1.20;;;15.60;76.80;;;;;;5031179;28;20072;-66
2022/09/29 12:57:13;;;;;;;3.53;1.15;;;15.50;75.50;;;;;;5041058;28;20056;-65
2022/09/29 13:00:03;;;;;;;3.42;1.02;;;15.50;76.90;;;;;;5045487;28;20044;-67
2022/09/29 13:02:38;;;;;;;1.83;0.70;;;15.50;77.60;;;;;;5040433;28;20034;-66
2022/09/29 13:05:39;;;;;;;3.40;1.00;;;15.50;77.40;;;;;;5030501;28;20053;-67
2022/09/29 13:08:32;;;;;;;1.60;0.68;;;15.50;79.00;;;;;;5029774;28;20037;-67
2022/09/29 13:11:13;;;;;;;2.65;0.70;;;15.50;78.50;;;;;;5030925;28;20083;-67
2022/09/29 13:13:47;;;;;;;3.00;1.02;;;15.60;78.70;;;;;;5031213;28;20021;-67
2022/09/29 13:16:27;;;;;;;2.60;1.00;;;15.60;79.20;;;;;;5031033;28;20030;-68
2022/09/29 13:19:16;;;;;;;4.07;1.15;;;15.60;81.40;;;;;;5033593;28;20133;-67